Time;durP1;ratioP1;P1;durP2;ratioP2;P2;SDS_P1;SDS_P2;PMS_P1;PMS_P2;Temp;Humidity;BMP_temperature;BMP_pressure;BME280_temperature;BME280_humidity;BME280_pressure;Samples;Min_cycle;Max_cycle;Signal;HPM_P1;HPM_P2
2023/08/27 00:26:06;;;;;;;0.10;0.10;;;;;;;17.82;54.98;100668.69;7367621;19;20042;-58
2023/08/27 00:28:32;;;;;;;0.00;0.00;;;;;;;17.78;55.37;100667.16;7365418;19;20022;-57
2023/08/27 00:31:04;;;;;;;0.00;0.00;;;;;;;17.76;54.82;100666.38;7364738;19;20015;-58
2023/08/27 00:33:30;;;;;;;0.00;0.00;;;;;;;17.72;54.80;100675.38;7373098;19;20018;-57
2023/08/27 00:35:56;;;;;;;0.03;0.03;;;;;;;17.68;54.91;100676.47;7370177;19;20019;-57
2023/08/27 00:38:22;;;;;;;0.10;0.10;;;;;;;17.55;55.01;100651.66;7362284;19;20030;-55
2023/08/27 00:40:47;;;;;;;0.00;0.00;;;;;;;17.66;54.88;100675.69;7367450;19;20479;-57
2023/08/27 00:43:12;;;;;;;0.00;0.00;;;;;;;17.66;55.02;100680.97;7364739;19;20026;-58
2023/08/27 00:45:38;;;;;;;0.10;0.10;;;;;;;17.61;55.49;100672.44;7366986;19;20629;-58
2023/08/27 00:48:05;;;;;;;0.03;0.03;;;;;;;17.64;55.55;100675.78;7367198;19;20043;-58
2023/08/27 00:50:31;;;;;;;0.10;0.10;;;;;;;17.66;55.44;100680.97;7363576;19;20022;-58
2023/08/27 00:52:57;;;;;;;0.00;0.00;;;;;;;17.62;55.27;100668.88;7367101;19;20119;-58
2023/08/27 00:55:22;;;;;;;0.00;0.00;;;;;;;17.65;55.36;100679.28;7371269;19;20070;-56
2023/08/27 00:57:49;;;;;;;0.10;0.10;;;;;;;17.58;55.52;100667.31;7371631;19;20014;-56
2023/08/27 01:00:16;;;;;;;0.10;0.10;;;;;;;17.66;55.43;100667.78;7364763;19;20045;-57
2023/08/27 01:02:43;;;;;;;0.10;0.10;;;;;;;17.64;54.89;100661.75;7360200;19;20014;-58
2023/08/27 01:05:09;;;;;;;;;;;;;;;17.66;53.51;100665.13;7367724;19;20784;-58
2023/08/27 01:07:53;;;;;;;0.00;0.00;;;;;;;17.63;53.82;100665.28;7364317;19;19949;-58
2023/08/27 01:10:54;;;;;;;0.00;0.00;;;;;;;17.59;54.16;100674.31;7364714;19;20935;-56
2023/08/27 01:13:42;;;;;;;0.05;0.05;;;;;;;17.54;54.29;100676.34;7361230;19;20007;-58
2023/08/27 01:16:09;;;;;;;0.00;0.00;;;;;;;17.47;54.94;100675.78;7372876;19;20493;-58
2023/08/27 01:18:39;;;;;;;0.00;0.00;;;;;;;17.45;55.53;100676.81;7375851;19;20604;-58
2023/08/27 01:21:34;;;;;;;0.10;0.10;;;;;;;17.44;54.30;100669.84;7371759;19;20007;-57
2023/08/27 01:23:59;;;;;;;0.00;0.00;;;;;;;17.37;55.23;100667.50;7370090;19;20485;-57
2023/08/27 01:26:27;;;;;;;0.03;0.03;;;;;;;17.38;55.45;100671.84;7368305;19;20023;-58
2023/08/27 01:29:02;;;;;;;0.00;0.00;;;;;;;17.38;54.86;100666.56;7371398;19;20808;-58
2023/08/27 01:31:34;;;;;;;0.00;0.00;;;;;;;17.36;55.27;100665.78;7370086;19;20011;-58
2023/08/27 01:34:05;;;;;;;0.00;0.00;;;;;;;17.27;55.37;100654.84;7372367;19;20902;-57
2023/08/27 01:36:34;;;;;;;0.10;0.10;;;;;;;17.32;55.48;100656.31;7371734;19;20050;-58
2023/08/27 01:39:00;;;;;;;0.10;0.10;;;;;;;17.32;55.48;100660.75;7374246;19;20033;-58
2023/08/27 01:41:25;;;;;;;0.00;0.00;;;;;;;17.30;55.49;100642.34;7377833;19;20014;-58
2023/08/27 01:43:51;;;;;;;0.00;0.00;;;;;;;17.31;55.37;100645.84;7378779;19;20819;-58
2023/08/27 01:46:16;;;;;;;0.00;0.00;;;;;;;17.29;55.40;100651.22;7378354;19;20011;-58
2023/08/27 01:48:41;;;;;;;0.00;0.00;;;;;;;17.28;55.37;100649.47;7376307;19;20006;-57
2023/08/27 01:51:07;;;;;;;0.05;0.05;;;;;;;17.27;55.59;100646.94;7372294;19;20022;-58
2023/08/27 01:53:32;;;;;;;0.10;0.10;;;;;;;17.24;55.42;100650.59;7370097;19;20419;-58
2023/08/27 01:55:58;;;;;;;0.00;0.00;;;;;;;17.23;55.91;100658.56;7373474;19;20031;-58
2023/08/27 01:58:23;;;;;;;0.10;0.10;;;;;;;17.21;56.00;100653.38;7368304;19;20003;-58
2023/08/27 02:00:50;;;;;;;0.10;0.10;;;;;;;17.20;55.84;100656.97;7373970;19;20022;-58
2023/08/27 02:03:15;;;;;;;0.08;0.08;;;;;;;17.02;55.72;100653.44;7375131;19;20006;-58
2023/08/27 02:05:41;;;;;;;0.00;0.00;;;;;;;17.16;56.05;100681.78;7373620;19;20018;-58
2023/08/27 02:08:06;;;;;;;0.10;0.10;;;;;;;17.09;56.13;100680.41;7375786;19;20003;-56
2023/08/27 02:10:31;;;;;;;0.10;0.10;;;;;;;17.07;55.84;100682.25;7369352;19;20015;-57
2023/08/27 02:12:57;;;;;;;0.03;0.03;;;;;;;17.08;56.20;100692.75;7371511;19;20008;-57
2023/08/27 02:15:22;;;;;;;0.00;0.00;;;;;;;17.05;56.29;100689.41;7373631;19;20014;-58
2023/08/27 02:17:48;;;;;;;0.00;0.00;;;;;;;16.98;55.92;100686.22;7381206;19;20006;-58
2023/08/27 02:20:13;;;;;;;0.03;0.03;;;;;;;17.02;56.04;100694.81;7374617;19;20013;-57
2023/08/27 02:22:39;;;;;;;0.10;0.10;;;;;;;16.97;56.20;100691.53;7375977;19;20006;-55
2023/08/27 02:25:06;;;;;;;0.00;0.00;;;;;;;16.99;55.97;100700.25;7372072;19;20406;-57
2023/08/27 02:27:32;;;;;;;0.00;0.00;;;;;;;16.98;56.66;100685.31;7372791;19;20021;-58
2023/08/27 02:29:57;;;;;;;0.00;0.00;;;;;;;16.97;56.37;100681.00;7372026;19;20003;-56
2023/08/27 02:32:24;;;;;;;0.00;0.00;;;;;;;16.96;56.62;100679.28;7367418;19;20022;-57
2023/08/27 02:34:49;;;;;;;0.00;0.00;;;;;;;16.95;56.54;100677.59;7371540;19;20031;-57
2023/08/27 02:37:15;;;;;;;0.00;0.00;;;;;;;16.96;56.37;100681.94;7376034;19;20030;-56
2023/08/27 02:39:40;;;;;;;0.00;0.00;;;;;;;16.96;56.38;100674.00;7367064;19;20014;-60
2023/08/27 02:42:06;;;;;;;0.00;0.00;;;;;;;16.95;56.45;100673.16;7371608;19;20014;-58
2023/08/27 02:44:31;;;;;;;0.00;0.00;;;;;;;16.96;56.82;100669.59;7371518;19;20086;-57
2023/08/27 02:46:56;;;;;;;0.00;0.00;;;;;;;16.96;56.51;100666.94;7373589;19;20032;-58
2023/08/27 02:49:22;;;;;;;0.10;0.10;;;;;;;16.96;56.46;100674.00;7370963;19;20021;-58
2023/08/27 02:51:47;;;;;;;0.10;0.10;;;;;;;16.96;56.71;100663.47;7372784;19;20019;-56
2023/08/27 02:54:13;;;;;;;0.00;0.00;;;;;;;16.96;56.75;100666.09;7372275;19;20010;-58
2023/08/27 02:56:38;;;;;;;0.00;0.00;;;;;;;16.96;56.52;100668.75;7372525;19;20486;-59
2023/08/27 02:59:04;;;;;;;0.00;0.00;;;;;;;16.97;56.95;100675.72;7371952;19;20073;-58
2023/08/27 03:01:30;;;;;;;0.00;0.00;;;;;;;16.96;56.79;100674.00;7372370;19;20033;-58
2023/08/27 03:03:55;;;;;;;0.00;0.00;;;;;;;16.97;57.23;100670.44;7372846;19;20449;-58
2023/08/27 03:06:20;;;;;;;0.10;0.10;;;;;;;16.95;57.50;100674.94;7373050;19;20470;-58
2023/08/27 03:08:46;;;;;;;0.00;0.00;;;;;;;16.91;57.49;100666.31;7372544;19;20009;-57
2023/08/27 03:11:11;;;;;;;0.00;0.00;;;;;;;16.93;57.88;100674.16;7361862;19;20093;-58
2023/08/27 03:13:37;;;;;;;0.08;0.08;;;;;;;16.89;57.54;100669.97;7372916;19;20010;-57
2023/08/27 03:16:03;;;;;;;0.10;0.10;;;;;;;16.88;58.13;100681.44;7364661;19;20679;-58
2023/08/27 03:18:29;;;;;;;0.00;0.00;;;;;;;16.84;57.73;100673.69;7374667;19;20364;-57
2023/08/27 03:20:55;;;;;;;0.00;0.00;;;;;;;16.82;57.98;100662.34;7350376;19;20014;-58
2023/08/27 03:23:21;;;;;;;0.00;0.00;;;;;;;16.81;58.39;100673.84;7373297;19;20009;-58
2023/08/27 03:25:49;;;;;;;0.00;0.00;;;;;;;16.70;58.28;100646.25;7366499;19;20033;-57
2023/08/27 03:28:14;;;;;;;0.10;0.10;;;;;;;16.75;58.67;100666.22;7371971;19;20002;-58
2023/08/27 03:30:40;;;;;;;0.00;0.00;;;;;;;16.76;58.36;100662.66;7371848;19;20018;-57
2023/08/27 03:33:05;;;;;;;0.00;0.00;;;;;;;16.73;58.87;100657.56;7369308;19;20367;-58
2023/08/27 03:35:31;;;;;;;0.10;0.10;;;;;;;16.74;58.49;100659.25;7371665;19;20025;-56
2023/08/27 03:37:56;;;;;;;0.00;0.00;;;;;;;16.74;58.63;100661.88;7375991;19;20010;-56
2023/08/27 03:40:22;;;;;;;0.00;0.00;;;;;;;16.72;58.68;100666.38;7370298;19;20010;-58
2023/08/27 03:42:47;;;;;;;0.10;0.10;;;;;;;16.71;58.96;100669.06;7370524;19;20027;-58
2023/08/27 03:45:13;;;;;;;0.00;0.00;;;;;;;16.69;59.18;100666.50;7377134;19;20427;-58
2023/08/27 03:47:38;;;;;;;0.00;0.00;;;;;;;16.67;59.26;100673.63;7369710;19;20516;-56
2023/08/27 03:50:04;;;;;;;0.00;0.00;;;;;;;16.66;58.96;100671.91;7368938;19;20014;-57
2023/08/27 03:52:30;;;;;;;0.10;0.10;;;;;;;16.64;59.44;100668.50;7366773;19;20003;-57
2023/08/27 03:54:55;;;;;;;0.00;0.00;;;;;;;16.53;59.55;100649.72;7370933;19;20763;-58
2023/08/27 03:57:21;;;;;;;0.00;0.00;;;;;;;16.63;59.63;100664.16;7372255;19;20003;-58
2023/08/27 03:59:46;;;;;;;0.00;0.00;;;;;;;16.62;59.36;100662.44;7370348;19;20673;-57
2023/08/27 04:02:12;;;;;;;0.08;0.08;;;;;;;16.61;59.73;100661.59;7371594;19;21227;-58
2023/08/27 04:04:37;;;;;;;0.08;0.08;;;;;;;16.60;60.24;100654.59;7368813;19;20006;-57
2023/08/27 04:07:03;;;;;;;0.00;0.00;;;;;;;16.58;60.06;100645.94;7370456;19;20081;-58
2023/08/27 04:09:28;;;;;;;0.10;0.10;;;;;;;16.59;59.83;100647.63;7368345;19;20014;-58
2023/08/27 04:11:54;;;;;;;0.10;0.10;;;;;;;16.60;60.07;100645.84;7370765;19;20006;-59
2023/08/27 04:14:19;;;;;;;0.10;0.10;;;;;;;16.57;59.95;100645.97;7374166;19;20078;-58
2023/08/27 04:16:44;;;;;;;0.00;0.00;;;;;;;16.58;60.15;100660.91;7370307;19;20014;-59
2023/08/27 04:19:10;;;;;;;0.00;0.00;;;;;;;16.57;60.16;100657.41;7365788;19;20006;-57
2023/08/27 04:21:35;;;;;;;0.10;0.10;;;;;;;16.56;60.23;100660.09;7370544;19;20102;-58
2023/08/27 04:24:01;;;;;;;0.00;0.00;;;;;;;16.56;60.42;100652.19;7369510;19;20014;-58
2023/08/27 04:26:26;;;;;;;0.00;0.00;;;;;;;16.54;59.93;100654.91;7365524;19;20616;-57
2023/08/27 04:28:54;;;;;;;0.03;0.03;;;;;;;16.53;59.74;100655.00;7370324;19;20082;-58
2023/08/27 04:31:20;;;;;;;0.00;0.00;;;;;;;16.51;60.50;100651.56;7366639;19;20027;-58
2023/08/27 04:33:46;;;;;;;0.00;0.00;;;;;;;16.50;59.99;100644.59;7370213;19;20060;-58
2023/08/27 04:36:11;;;;;;;0.00;0.00;;;;;;;16.49;60.34;100649.00;7372081;19;20423;-57
2023/08/27 04:38:36;;;;;;;0.00;0.00;;;;;;;16.48;60.55;100641.19;7368790;19;20009;-57
2023/08/27 04:41:02;;;;;;;0.00;0.00;;;;;;;16.42;60.30;100636.19;7370593;19;20010;-58
2023/08/27 04:43:27;;;;;;;0.00;0.00;;;;;;;16.47;60.64;100644.72;7367851;19;20437;-58
2023/08/27 04:45:56;;;;;;;0.10;0.10;;;;;;;16.47;60.28;100648.22;7370794;19;20777;-57
2023/08/27 04:48:21;;;;;;;0.10;0.10;;;;;;;16.46;60.06;100651.78;7367527;19;20010;-58
2023/08/27 04:50:47;;;;;;;0.10;0.10;;;;;;;16.45;60.28;100647.44;7367397;19;20426;-58
2023/08/27 04:53:13;;;;;;;0.08;0.08;;;;;;;16.45;60.06;100652.72;7367739;19;20027;-57
2023/08/27 04:55:38;;;;;;;0.00;0.00;;;;;;;16.45;59.82;100646.59;7369524;19;20020;-58
2023/08/27 04:58:04;;;;;;;0.03;0.03;;;;;;;16.44;60.09;100650.16;7373517;19;20006;-58
2023/08/27 05:00:30;;;;;;;0.10;0.10;;;;;;;16.44;60.06;100652.78;7369649;19;20014;-58
2023/08/27 05:02:56;;;;;;;0.00;0.00;;;;;;;16.42;60.45;100646.72;7375809;19;20007;-57
2023/08/27 05:05:21;;;;;;;0.03;0.03;;;;;;;16.41;60.16;100650.28;7372181;19;20010;-57
2023/08/27 05:07:47;;;;;;;0.10;0.10;;;;;;;16.38;60.50;100650.47;7369163;19;20472;-57
2023/08/27 05:10:12;;;;;;;0.00;0.00;;;;;;;16.28;60.65;100632.44;7364078;19;20007;-58
2023/08/27 05:12:38;;;;;;;0.10;0.10;;;;;;;16.25;60.69;100624.66;7367954;19;20003;-58
2023/08/27 05:15:05;;;;;;;0.00;0.00;;;;;;;16.40;60.47;100648.59;7361345;19;19998;-58
2023/08/27 05:17:31;;;;;;;;;;;;;;;16.43;57.77;100648.47;7370866;19;20977;-58
2023/08/27 05:19:56;;;;;;;0.00;0.00;;;;;;;16.24;60.60;100627.38;7366713;19;19934;-57
2023/08/27 05:22:22;;;;;;;0.00;0.00;;;;;;;16.37;60.63;100656.63;7367810;19;20006;-57
2023/08/27 05:24:50;;;;;;;0.00;0.00;;;;;;;16.28;59.92;100650.88;7362529;19;20470;-58
2023/08/27 05:27:16;;;;;;;0.00;0.00;;;;;;;16.32;60.51;100654.22;7361819;19;20014;-58
2023/08/27 05:29:41;;;;;;;0.00;0.00;;;;;;;16.30;60.77;100651.66;7366528;19;20092;-58
2023/08/27 05:32:07;;;;;;;0.00;0.00;;;;;;;16.29;60.93;100642.03;7366915;19;20351;-56
2023/08/27 05:34:32;;;;;;;0.00;0.00;;;;;;;16.28;60.65;100629.81;7366839;19;20738;-58
2023/08/27 05:36:58;;;;;;;0.00;0.00;;;;;;;16.27;61.02;100636.00;7362161;19;20015;-58
2023/08/27 05:39:23;;;;;;;0.00;0.00;;;;;;;16.27;60.95;100624.59;7363392;19;20018;-58
2023/08/27 05:41:49;;;;;;;0.10;0.10;;;;;;;16.25;60.65;100632.56;7370010;19;20137;-57
2023/08/27 07:26:48;;;;;;;0.00;0.00;;;;;;;16.41;62.55;100645.88;7358873;19;20014;-58
2023/08/27 07:29:14;;;;;;;0.05;0.05;;;;;;;16.43;62.75;100640.56;7366878;19;20011;-57
2023/08/27 07:31:39;;;;;;;0.00;0.00;;;;;;;16.44;62.53;100637.81;7368581;19;20006;-56
2023/08/27 07:34:05;;;;;;;0.00;0.00;;;;;;;16.47;62.65;100631.53;7342815;19;20006;-57
2023/08/27 07:36:30;;;;;;;0.00;0.00;;;;;;;16.48;62.98;100630.63;7368082;19;20517;-57
2023/08/27 07:38:57;;;;;;;0.10;0.10;;;;;;;16.49;62.84;100633.19;7370663;19;20670;-58
2023/08/27 07:41:23;;;;;;;0.10;0.10;;;;;;;16.52;62.83;100637.44;7370493;19;20010;-58
2023/08/27 07:43:48;;;;;;;0.00;0.00;;;;;;;16.54;62.82;100635.59;7365313;19;20033;-59
2023/08/27 07:46:14;;;;;;;0.10;0.10;;;;;;;16.51;62.91;100625.19;7367220;19;20010;-58
2023/08/27 07:48:39;;;;;;;0.00;0.00;;;;;;;16.57;63.01;100628.41;7365391;19;20023;-58
2023/08/27 07:51:05;;;;;;;0.00;0.00;;;;;;;16.61;62.89;100631.72;7370340;19;20717;-56
2023/08/27 07:53:30;;;;;;;0.00;0.00;;;;;;;16.64;63.21;100634.22;7354809;19;20017;-58
2023/08/27 07:55:57;;;;;;;0.03;0.03;;;;;;;16.67;62.69;100630.56;7366582;19;20014;-58
2023/08/27 07:58:22;;;;;;;0.00;0.00;;;;;;;16.69;62.87;100629.59;7364300;19;20754;-58
2023/08/27 08:00:48;;;;;;;0.10;0.10;;;;;;;16.63;63.10;100619.34;7366503;19;20015;-57
2023/08/27 08:03:13;;;;;;;0.00;0.00;;;;;;;16.70;63.17;100628.66;7363369;19;20018;-58
2023/08/27 08:05:39;;;;;;;0.00;0.00;;;;;;;16.78;62.96;100633.59;7366068;19;20027;-57
2023/08/27 08:08:04;;;;;;;0.00;0.00;;;;;;;16.69;63.19;100620.81;7366651;19;20099;-57
2023/08/27 08:10:30;;;;;;;0.10;0.10;;;;;;;16.80;63.21;100631.72;7369936;19;20019;-57
2023/08/27 08:12:55;;;;;;;0.00;0.00;;;;;;;16.69;62.80;100612.91;7367344;19;20010;-58
2023/08/27 08:15:21;;;;;;;0.00;0.00;;;;;;;16.83;62.92;100648.25;7367777;19;20494;-58
2023/08/27 08:17:46;;;;;;;0.10;0.10;;;;;;;16.85;63.12;100640.25;7367903;19;20112;-58
2023/08/27 08:20:13;;;;;;;0.10;0.10;;;;;;;16.89;62.85;100638.34;7363243;19;20011;-58
2023/08/27 08:22:39;;;;;;;0.10;0.10;;;;;;;16.85;63.31;100625.28;7365351;19;20334;-58
2023/08/27 08:25:06;;;;;;;0.00;0.00;;;;;;;16.92;63.05;100635.53;7361900;19;20082;-57
2023/08/27 08:27:32;;;;;;;0.03;0.03;;;;;;;16.99;62.85;100642.22;7368646;19;20102;-58
2023/08/27 08:29:58;;;;;;;0.00;0.00;;;;;;;17.02;63.31;100637.63;7368224;19;20629;-58
2023/08/27 08:32:23;;;;;;;0.10;0.10;;;;;;;17.06;62.90;100635.69;7365879;19;20141;-58
2023/08/27 08:34:48;;;;;;;0.10;0.10;;;;;;;17.07;62.92;100640.03;7348086;19;19999;-58
2023/08/27 08:37:14;;;;;;;0.10;0.10;;;;;;;17.11;63.27;100641.59;7368118;19;20006;-58
2023/08/27 08:39:40;;;;;;;0.10;0.10;;;;;;;17.14;63.36;100636.16;7366482;19;20006;-58
2023/08/27 08:42:14;;;;;;;0.10;0.10;;;;;;;17.23;62.29;100640.09;7371300;19;20009;-58
2023/08/27 08:44:53;;;;;;;0.00;0.00;;;;;;;17.23;63.28;100640.94;7362809;19;20011;-58
2023/08/27 08:47:19;;;;;;;0.00;0.00;;;;;;;17.20;63.17;100629.72;7368366;19;19994;-58
2023/08/27 08:49:45;;;;;;;0.10;0.10;;;;;;;17.25;62.99;100631.19;7366340;19;20029;-57
2023/08/27 08:52:16;;;;;;;0.10;0.10;;;;;;;17.37;62.52;100650.81;7366769;19;20381;-58
2023/08/27 08:54:42;;;;;;;0.00;0.00;;;;;;;17.38;62.85;100650.72;7364970;19;20386;-58
2023/08/27 08:57:13;;;;;;;0.00;0.00;;;;;;;17.46;62.27;100646.84;7368282;19;20022;-58
2023/08/27 08:59:40;;;;;;;0.00;0.00;;;;;;;17.46;62.57;100641.56;7361262;19;20014;-58
2023/08/27 09:02:10;;;;;;;0.10;0.10;;;;;;;17.53;62.35;100642.94;7372342;19;20093;-58
2023/08/27 09:04:36;;;;;;;0.10;0.10;;;;;;;17.52;62.86;100650.00;7364636;19;20026;-58
2023/08/27 09:07:04;;;;;;;0.00;0.00;;;;;;;17.46;62.40;100631.84;7366643;19;20023;-58
2023/08/27 09:09:31;;;;;;;0.00;0.00;;;;;;;17.58;62.32;100643.53;7369672;19;20326;-57
2023/08/27 09:11:59;;;;;;;0.10;0.10;;;;;;;17.60;62.48;100654.91;7366452;19;20494;-58
2023/08/27 09:14:25;;;;;;;0.10;0.10;;;;;;;17.60;62.31;100649.63;7367555;19;20744;-57
2023/08/27 09:16:51;;;;;;;0.10;0.10;;;;;;;17.63;62.03;100657.38;7363304;19;20018;-57
2023/08/27 09:19:16;;;;;;;0.10;0.10;;;;;;;17.65;62.37;100658.16;7358300;19;20019;-58
2023/08/27 09:21:43;;;;;;;0.10;0.10;;;;;;;17.66;61.92;100654.56;7367041;19;20717;-58
2023/08/27 09:24:09;;;;;;;0.00;0.00;;;;;;;17.67;62.33;100656.28;7366702;19;20605;-58
2023/08/27 09:26:34;;;;;;;0.00;0.00;;;;;;;17.56;62.21;100637.50;7348718;19;20101;-57
2023/08/27 09:29:01;;;;;;;0.10;0.10;;;;;;;17.70;62.08;100661.41;7363504;19;20022;-57
2023/08/27 09:31:42;;;;;;;0.00;0.00;;;;;;;17.76;61.68;100660.25;7364837;19;20082;-57
2023/08/27 09:34:09;;;;;;;0.10;0.10;;;;;;;17.73;62.76;100653.34;7363663;19;20007;-57
2023/08/27 09:36:37;;;;;;;0.10;0.10;;;;;;;17.78;62.30;100659.22;7369096;19;20022;-56
2023/08/27 09:39:10;;;;;;;0.10;0.10;;;;;;;17.81;62.23;100658.22;7367947;19;20515;-57
2023/08/27 09:41:41;;;;;;;0.10;0.10;;;;;;;17.83;61.89;100661.63;7368495;19;20118;-57
2023/08/27 09:44:07;;;;;;;0.08;0.08;;;;;;;17.80;62.53;100656.53;7370683;19;20047;-58
2023/08/27 09:46:33;;;;;;;0.00;0.00;;;;;;;17.67;62.20;100627.22;7364915;19;20010;-57
2023/08/27 09:49:04;;;;;;;0.10;0.10;;;;;;;17.82;61.90;100652.84;7365881;19;20854;-56
2023/08/27 09:51:31;;;;;;;0.10;0.10;;;;;;;17.85;62.03;100650.06;7363885;19;20010;-57
2023/08/27 09:53:57;;;;;;;0.00;0.00;;;;;;;17.81;61.67;100648.50;7364569;19;20011;-58
2023/08/27 09:56:27;;;;;;;0.03;0.03;;;;;;;17.88;61.63;100649.03;7352098;19;20066;-57
2023/08/27 09:58:53;;;;;;;0.10;0.10;;;;;;;17.88;61.96;100647.22;7363491;19;20022;-58
2023/08/27 10:01:21;;;;;;;0.10;0.10;;;;;;;17.92;61.95;100644.44;7362729;19;20010;-57
2023/08/27 10:03:49;;;;;;;0.10;0.10;;;;;;;17.98;61.58;100644.09;7359765;19;20781;-58
2023/08/27 10:06:15;;;;;;;0.08;0.08;;;;;;;18.00;61.72;100642.25;7362896;19;20003;-58
2023/08/27 10:08:53;;;;;;;0.03;0.03;;;;;;;18.02;61.13;100635.06;7366045;19;20042;-57
2023/08/27 10:11:22;;;;;;;0.10;0.10;;;;;;;18.11;61.09;100642.50;7369193;19;20086;-58
2023/08/27 10:13:47;;;;;;;0.00;0.00;;;;;;;18.02;61.60;100619.22;7371795;19;20058;-58
2023/08/27 10:16:14;;;;;;;0.10;0.10;;;;;;;18.16;61.20;100635.16;7373081;19;20474;-57
2023/08/27 10:18:41;;;;;;;0.10;0.10;;;;;;;18.20;61.12;100633.19;7367249;19;20025;-56
2023/08/27 10:21:10;;;;;;;0.10;0.10;;;;;;;18.25;61.37;100631.16;7363885;19;20007;-58
2023/08/27 10:23:39;;;;;;;0.00;0.00;;;;;;;18.32;60.94;100630.72;7361963;19;20037;-57
2023/08/27 10:26:05;;;;;;;0.05;0.05;;;;;;;18.37;61.21;100633.97;7337528;19;20037;-58
2023/08/27 10:28:33;;;;;;;0.10;0.10;;;;;;;18.43;60.86;100630.13;7348745;19;20015;-58
2023/08/27 10:30:59;;;;;;;0.10;0.10;;;;;;;18.51;61.04;100637.63;7351804;19;20864;-58
2023/08/27 10:33:25;;;;;;;0.05;0.05;;;;;;;18.59;60.46;100638.03;7357338;19;20042;-58
2023/08/27 10:35:52;;;;;;;0.00;0.00;;;;;;;18.69;60.62;100641.03;7355332;19;20056;-58
2023/08/27 10:38:21;;;;;;;0.10;0.10;;;;;;;18.80;60.42;100628.03;7350945;19;20098;-58
2023/08/27 10:40:48;;;;;;;0.10;0.10;;;;;;;18.78;60.31;100624.66;7357114;19;20719;-57
2023/08/27 10:43:18;;;;;;;0.10;0.10;;;;;;;18.91;60.44;100626.50;7361355;19;20049;-58
2023/08/27 10:45:43;;;;;;;0.10;0.10;;;;;;;18.98;60.03;100637.56;7359212;19;20007;-57
2023/08/27 10:48:25;;;;;;;0.10;0.10;;;;;;;19.10;59.51;100641.28;7350465;19;20763;-56
2023/08/27 10:51:08;;;;;;;0.10;0.10;;;;;;;19.16;59.30;100643.59;7350676;19;20038;-58
2023/08/27 10:53:52;;;;;;;0.10;0.10;;;;;;;19.15;59.00;100623.31;7354686;19;20384;-57
2023/08/27 10:56:37;;;;;;;0.00;0.00;;;;;;;19.23;59.40;100625.53;7352205;19;20014;-57
2023/08/27 10:59:06;;;;;;;0.10;0.10;;;;;;;19.20;58.97;100629.19;7360534;19;20018;-57
2023/08/27 11:02:07;;;;;;;0.08;0.08;;;;;;;19.28;59.03;100615.53;7361107;19;20751;-58
2023/08/27 11:04:43;;;;;;;0.00;0.00;;;;;;;19.28;58.83;100623.47;7355046;19;20010;-58
2023/08/27 11:07:17;;;;;;;0.08;0.08;;;;;;;19.28;59.37;100619.00;7353642;19;20026;-57
2023/08/27 11:09:50;;;;;;;0.10;0.10;;;;;;;19.36;59.26;100632.66;7354958;19;20021;-58
2023/08/27 11:12:33;;;;;;;0.03;0.03;;;;;;;19.40;59.39;100623.56;7353414;19;20354;-58
2023/08/27 11:15:15;;;;;;;0.00;0.00;;;;;;;19.44;59.41;100619.78;7354163;19;20033;-58
2023/08/27 11:17:42;;;;;;;0.08;0.08;;;;;;;19.48;59.73;100624.91;7349644;19;20011;-58
2023/08/27 11:20:29;;;;;;;0.00;0.00;;;;;;;19.63;58.89;100629.28;7353327;19;20010;-57
2023/08/27 11:22:59;;;;;;;0.10;0.10;;;;;;;19.64;58.90;100612.44;7358541;19;20038;-58
2023/08/27 11:25:26;;;;;;;0.00;0.00;;;;;;;19.69;58.90;100621.81;7353749;19;20462;-57
2023/08/27 11:27:54;;;;;;;0.03;0.03;;;;;;;19.73;59.24;100614.53;7331547;19;20546;-58
2023/08/27 11:30:19;;;;;;;0.10;0.10;;;;;;;19.76;59.74;100619.63;7355307;19;20010;-57
2023/08/27 11:32:45;;;;;;;0.10;0.10;;;;;;;19.82;59.81;100613.97;7351519;19;20046;-59
2023/08/27 11:35:14;;;;;;;0.00;0.00;;;;;;;19.91;60.25;100612.50;7353357;19;20007;-58
2023/08/27 11:37:40;;;;;;;0.00;0.00;;;;;;;19.98;60.44;100618.31;7354904;19;20014;-58
2023/08/27 11:40:15;;;;;;;0.10;0.10;;;;;;;20.14;59.97;100609.25;7351082;19;20006;-58
2023/08/27 11:42:50;;;;;;;0.00;0.00;;;;;;;20.29;59.80;100611.88;7352848;19;20018;-58
2023/08/27 11:45:15;;;;;;;0.00;0.00;;;;;;;20.35;60.20;100609.69;7348216;19;20014;-58
2023/08/27 11:47:42;;;;;;;0.10;0.10;;;;;;;20.44;59.83;100611.75;7353332;19;20032;-58
2023/08/27 11:50:08;;;;;;;0.10;0.10;;;;;;;20.52;59.56;100613.06;7360512;19;20003;-58
2023/08/27 11:52:38;;;;;;;0.08;0.08;;;;;;;20.61;59.86;100612.47;7351222;19;20430;-57
2023/08/27 11:55:05;;;;;;;0.10;0.10;;;;;;;20.61;59.97;100604.50;7354427;19;20636;-58
2023/08/27 11:57:31;;;;;;;0.10;0.10;;;;;;;20.62;60.24;100592.94;7348716;19;20351;-58
2023/08/27 11:59:56;;;;;;;0.10;0.10;;;;;;;20.65;60.34;100598.91;7351018;19;20010;-58
2023/08/27 12:02:22;;;;;;;0.00;0.00;;;;;;;20.64;60.30;100589.25;7359059;19;20035;-57
2023/08/27 12:04:52;;;;;;;0.00;0.00;;;;;;;20.68;60.90;100584.56;7347964;19;20014;-58
2023/08/27 12:07:26;;;;;;;0.10;0.10;;;;;;;20.75;59.97;100596.47;7354369;19;20566;-58
2023/08/27 12:09:52;;;;;;;0.00;0.00;;;;;;;20.79;60.82;100594.50;7354700;19;20018;-58
2023/08/27 12:12:17;;;;;;;0.10;0.10;;;;;;;20.88;59.96;100593.84;7349597;19;20031;-58
2023/08/27 12:14:42;;;;;;;0.10;0.10;;;;;;;20.98;59.64;100598.44;7349611;19;20018;-57
2023/08/27 12:17:09;;;;;;;0.10;0.10;;;;;;;21.04;59.23;100599.84;7349995;19;20733;-58
2023/08/27 12:19:36;;;;;;;0.10;0.10;;;;;;;21.10;59.14;100601.22;7353259;19;20014;-58
2023/08/27 12:22:01;;;;;;;0.10;0.10;;;;;;;21.16;58.92;100595.50;7347127;19;20019;-58
2023/08/27 12:24:29;;;;;;;0.00;0.00;;;;;;;21.23;58.34;100594.09;7350053;19;20796;-58
2023/08/27 12:26:55;;;;;;;;;;;;;;;21.37;58.61;100593.19;7346394;19;21935;-57
2023/08/27 12:29:20;;;;;;;0.10;0.10;;;;;;;21.35;57.85;100593.31;7358381;19;20013;-58
2023/08/27 12:31:46;;;;;;;0.00;0.00;;;;;;;21.37;57.70;100594.03;7348587;19;20033;-58
2023/08/27 12:34:11;;;;;;;0.00;0.00;;;;;;;21.37;57.63;100601.16;7349250;19;20163;-58
2023/08/27 12:36:36;;;;;;;0.10;0.10;;;;;;;21.37;57.41;100596.69;7350228;19;20010;-57
2023/08/27 12:39:03;;;;;;;0.10;0.10;;;;;;;21.35;57.54;100603.94;7347699;19;20007;-58
2023/08/27 12:41:28;;;;;;;0.10;0.10;;;;;;;21.28;57.65;100602.59;7352741;19;20781;-58
2023/08/27 12:43:55;;;;;;;0.10;0.10;;;;;;;21.21;57.55;100596.88;7349451;19;20049;-58
2023/08/27 12:46:22;;;;;;;0.10;0.10;;;;;;;21.22;58.01;100598.56;7351010;19;20116;-58
2023/08/27 12:48:48;;;;;;;;;;;;;;;21.30;57.47;100607.81;7351395;19;20006;-56
2023/08/27 12:51:14;;;;;;;0.10;0.10;;;;;;;21.24;57.29;100603.78;7351532;19;20284;-58
2023/08/27 12:53:40;;;;;;;0.00;0.00;;;;;;;21.21;57.17;100601.34;7349344;19;20006;-58
2023/08/27 12:56:05;;;;;;;0.10;0.10;;;;;;;21.14;57.80;100597.41;7357328;19;20738;-58
2023/08/27 12:58:31;;;;;;;0.10;0.10;;;;;;;21.14;58.49;100608.03;7350513;19;20010;-57
2023/08/27 13:00:56;;;;;;;0.00;0.00;;;;;;;21.12;58.22;100601.97;7349764;19;20012;-58
2023/08/27 13:03:22;;;;;;;0.10;0.10;;;;;;;21.10;58.09;100595.91;7355303;19;20034;-58
2023/08/27 13:05:48;;;;;;;0.10;0.10;;;;;;;21.12;58.36;100586.03;7350299;19;20014;-58
2023/08/27 13:08:13;;;;;;;0.10;0.10;;;;;;;21.12;58.06;100584.22;7349292;19;20043;-58
2023/08/27 13:10:39;;;;;;;0.00;0.00;;;;;;;21.14;57.92;100584.97;7355332;19;20018;-58
2023/08/27 13:13:04;;;;;;;0.00;0.00;;;;;;;21.18;58.11;100586.44;7359327;19;20868;-57
2023/08/27 13:15:30;;;;;;;0.10;0.10;;;;;;;21.18;58.02;100574.97;7359118;19;20006;-56
2023/08/27 13:17:56;;;;;;;0.10;0.10;;;;;;;21.23;58.55;100579.00;7357207;19;20025;-56
2023/08/27 13:20:22;;;;;;;0.00;0.00;;;;;;;21.31;58.83;100585.66;7355227;19;20014;-57
2023/08/27 13:22:47;;;;;;;0.10;0.10;;;;;;;21.37;58.71;100586.06;7353335;19;20415;-58
2023/08/27 13:25:13;;;;;;;0.08;0.08;;;;;;;21.46;58.16;100579.28;7354119;19;20063;-58
2023/08/27 13:27:38;;;;;;;0.03;0.03;;;;;;;21.59;57.82;100589.88;7349487;19;20018;-58
2023/08/27 13:30:05;;;;;;;0.00;0.00;;;;;;;21.66;57.53;100589.34;7353986;19;20010;-57
2023/08/27 13:32:30;;;;;;;0.10;0.10;;;;;;;21.66;57.96;100570.75;7354438;19;20438;-58
2023/08/27 13:34:56;;;;;;;0.10;0.10;;;;;;;21.79;57.97;100581.31;7356613;19;21093;-58